カラチ の空港の天気 - METARとTAF

ジンナー国際空港(カラチ) ( OPKC / KHI ) - パキスタン Karachi
飛行場実況気象(Metar)
観測時間09/18 05:25 PKT (09/18 00:25 UTC)
風向・風速西南西 2m/s
視程6000m
天気現象
全天の4割程度の雲 雲底高度 610m
気温26℃
湿度84%
気圧1006hPa
METAROPKC 180025Z 24003KT 6000 SCT020 26/23 Q1006 NOSIG
過去の天気等 Google飛行場航空写真 Wunderground天気予報

過去48時間のMETAR

飛行場予報(TAF)
発表時間: 9/18 02:30 PKT (9/17 21:30 UTC)
予報対象時間: 18日5時 PKT ~ 19日11時 PKT
風向・風速西 5m/s
視程4000m
天気現象
全天の4割程度の雲 雲底高度 610m
18日11時 PKT から
風向・風速西南西 5m/s 瞬間風速 10m/s
視程7000m
全天の4割程度の雲 雲底高度 910m
18日21時 PKT ~ 18日23時 PKT に徐々に
風向・風速西 5m/s
視程6000m
全天の4割程度の雲 雲底高度 610m
19日6時 PKT ~ 19日10時 PKT に一時的に
風向・風速西 4m/s
視程4000m
天気現象
全天の4割程度の雲 雲底高度 610m
TAF OPKC 172130Z 1800/1906 27010KT 4000 FU SCT020
FM180600 24010G20KT 7000 SCT030
BECMG 1816/1818 27010KT 6000 SCT020
TEMPO 1901/1905 27008KT 4000 FU SCT020